sensor_id;sensor_type;location;lat;lon;timestamp;temperature;humidity
16867;DHT22;8550;52.596;13.320;2023-11-21T00:03:03;7.30;99.90
16867;DHT22;8550;52.596;13.320;2023-11-21T00:08:05;7.20;99.90
16867;DHT22;8550;52.596;13.320;2023-11-21T00:13:07;7.20;99.90
16867;DHT22;8550;52.596;13.320;2023-11-21T00:18:11;7.10;99.90
16867;DHT22;8550;52.596;13.320;2023-11-21T00:23:12;7.10;99.90
16867;DHT22;8550;52.596;13.320;2023-11-21T00:28:14;7.10;99.90
16867;DHT22;8550;52.596;13.320;2023-11-21T00:33:18;7.10;99.90
16867;DHT22;8550;52.596;13.320;2023-11-21T00:38:20;6.90;99.90
16867;DHT22;8550;52.596;13.320;2023-11-21T00:43:22;7.00;99.90
16867;DHT22;8550;52.596;13.320;2023-11-21T00:48:25;6.90;99.90
16867;DHT22;8550;52.596;13.320;2023-11-21T00:53:27;6.90;99.90
16867;DHT22;8550;52.596;13.320;2023-11-21T00:58:30;6.90;99.90
16867;DHT22;8550;52.596;13.320;2023-11-21T01:03:33;6.80;99.90
16867;DHT22;8550;52.596;13.320;2023-11-21T01:08:35;6.80;99.90
16867;DHT22;8550;52.596;13.320;2023-11-21T01:13:37;6.70;99.90
16867;DHT22;8550;52.596;13.320;2023-11-21T01:18:41;6.70;99.90
16867;DHT22;8550;52.596;13.320;2023-11-21T01:23:42;6.70;99.90
16867;DHT22;8550;52.596;13.320;2023-11-21T01:28:44;6.60;99.90
16867;DHT22;8550;52.596;13.320;2023-11-21T01:33:50;6.60;99.90
16867;DHT22;8550;52.596;13.320;2023-11-21T01:38:52;6.80;99.90
16867;DHT22;8550;52.596;13.320;2023-11-21T01:43:55;6.70;99.90
16867;DHT22;8550;52.596;13.320;2023-11-21T01:48:58;6.60;99.90
16867;DHT22;8550;52.596;13.320;2023-11-21T01:54:00;6.70;99.90
16867;DHT22;8550;52.596;13.320;2023-11-21T01:59:02;6.50;99.90
16867;DHT22;8550;52.596;13.320;2023-11-21T02:04:06;6.40;99.90
16867;DHT22;8550;52.596;13.320;2023-11-21T02:09:08;6.40;99.90
16867;DHT22;8550;52.596;13.320;2023-11-21T02:14:12;6.40;99.90
16867;DHT22;8550;52.596;13.320;2023-11-21T02:19:18;6.30;99.90
16867;DHT22;8550;52.596;13.320;2023-11-21T02:24:24;6.30;99.90
16867;DHT22;8550;52.596;13.320;2023-11-21T02:29:27;6.30;99.90
16867;DHT22;8550;52.596;13.320;2023-11-21T02:34:30;6.30;99.90
16867;DHT22;8550;52.596;13.320;2023-11-21T02:39:33;6.30;99.90
16867;DHT22;8550;52.596;13.320;2023-11-21T02:44:35;6.20;99.90
16867;DHT22;8550;52.596;13.320;2023-11-21T02:49:37;6.20;99.90
16867;DHT22;8550;52.596;13.320;2023-11-21T02:54:40;6.20;99.90
16867;DHT22;8550;52.596;13.320;2023-11-21T02:59:42;6.10;99.90
16867;DHT22;8550;52.596;13.320;2023-11-21T03:04:44;6.10;99.90
16867;DHT22;8550;52.596;13.320;2023-11-21T03:09:47;6.00;99.90
16867;DHT22;8550;52.596;13.320;2023-11-21T03:14:49;6.10;99.90
16867;DHT22;8550;52.596;13.320;2023-11-21T03:19:51;6.10;99.90
16867;DHT22;8550;52.596;13.320;2023-11-21T03:24:55;6.00;99.90
16867;DHT22;8550;52.596;13.320;2023-11-21T03:29:57;6.00;99.90
16867;DHT22;8550;52.596;13.320;2023-11-21T03:34:59;6.00;99.90
16867;DHT22;8550;52.596;13.320;2023-11-21T03:40:05;6.10;99.90
16867;DHT22;8550;52.596;13.320;2023-11-21T03:45:09;6.00;99.90
16867;DHT22;8550;52.596;13.320;2023-11-21T03:50:12;6.00;99.90
16867;DHT22;8550;52.596;13.320;2023-11-21T03:55:16;6.00;99.90
16867;DHT22;8550;52.596;13.320;2023-11-21T04:00:18;5.90;99.90
16867;DHT22;8550;52.596;13.320;2023-11-21T04:05:23;5.90;99.90
16867;DHT22;8550;52.596;13.320;2023-11-21T04:10:26;5.90;99.90
16867;DHT22;8550;52.596;13.320;2023-11-21T04:15:28;5.90;99.90
16867;DHT22;8550;52.596;13.320;2023-11-21T04:20:30;5.80;99.90
16867;DHT22;8550;52.596;13.320;2023-11-21T04:25:34;5.80;99.90
16867;DHT22;8550;52.596;13.320;2023-11-21T04:30:36;5.80;99.90
16867;DHT22;8550;52.596;13.320;2023-11-21T04:35:40;5.90;99.90
16867;DHT22;8550;52.596;13.320;2023-11-21T04:40:43;5.80;99.90
16867;DHT22;8550;52.596;13.320;2023-11-21T04:45:45;5.80;99.90
16867;DHT22;8550;52.596;13.320;2023-11-21T04:50:48;5.80;99.90
16867;DHT22;8550;52.596;13.320;2023-11-21T04:55:51;5.70;99.90
16867;DHT22;8550;52.596;13.320;2023-11-21T05:00:54;5.80;99.90
16867;DHT22;8550;52.596;13.320;2023-11-21T05:05:56;5.70;99.90
16867;DHT22;8550;52.596;13.320;2023-11-21T05:11:00;5.70;99.90
16867;DHT22;8550;52.596;13.320;2023-11-21T05:16:06;5.70;99.90
16867;DHT22;8550;52.596;13.320;2023-11-21T05:21:11;5.70;99.90
16867;DHT22;8550;52.596;13.320;2023-11-21T05:26:14;5.60;99.90
16867;DHT22;8550;52.596;13.320;2023-11-21T05:31:16;5.60;99.90
16867;DHT22;8550;52.596;13.320;2023-11-21T05:36:18;5.60;99.90
16867;DHT22;8550;52.596;13.320;2023-11-21T05:41:21;5.60;99.90
16867;DHT22;8550;52.596;13.320;2023-11-21T05:46:24;5.50;99.90
16867;DHT22;8550;52.596;13.320;2023-11-21T05:51:26;5.50;99.90
16867;DHT22;8550;52.596;13.320;2023-11-21T05:56:29;5.50;99.90
16867;DHT22;8550;52.596;13.320;2023-11-21T06:01:31;5.50;99.90
16867;DHT22;8550;52.596;13.320;2023-11-21T06:06:33;5.40;99.90
16867;DHT22;8550;52.596;13.320;2023-11-21T06:11:36;5.30;99.90
16867;DHT22;8550;52.596;13.320;2023-11-21T06:16:38;5.40;99.90
16867;DHT22;8550;52.596;13.320;2023-11-21T06:21:41;5.40;99.90
16867;DHT22;8550;52.596;13.320;2023-11-21T06:26:44;5.30;99.90
16867;DHT22;8550;52.596;13.320;2023-11-21T06:31:46;5.30;99.90
16867;DHT22;8550;52.596;13.320;2023-11-21T06:36:48;5.20;99.90
16867;DHT22;8550;52.596;13.320;2023-11-21T06:41:51;5.20;99.90
16867;DHT22;8550;52.596;13.320;2023-11-21T06:46:53;5.30;99.90
16867;DHT22;8550;52.596;13.320;2023-11-21T06:51:55;5.30;99.90
16867;DHT22;8550;52.596;13.320;2023-11-21T06:56:59;5.30;99.90
16867;DHT22;8550;52.596;13.320;2023-11-21T07:02:01;5.30;99.90
16867;DHT22;8550;52.596;13.320;2023-11-21T07:07:03;5.20;99.90
16867;DHT22;8550;52.596;13.320;2023-11-21T07:12:08;5.20;99.90
16867;DHT22;8550;52.596;13.320;2023-11-21T07:17:11;5.30;99.90
16867;DHT22;8550;52.596;13.320;2023-11-21T07:22:13;5.30;99.90
16867;DHT22;8550;52.596;13.320;2023-11-21T07:27:17;5.30;99.90
16867;DHT22;8550;52.596;13.320;2023-11-21T07:32:19;5.40;99.90
16867;DHT22;8550;52.596;13.320;2023-11-21T07:37:21;5.30;99.90
16867;DHT22;8550;52.596;13.320;2023-11-21T07:42:24;5.30;99.90
16867;DHT22;8550;52.596;13.320;2023-11-21T07:47:27;5.30;99.90
16867;DHT22;8550;52.596;13.320;2023-11-21T07:52:29;5.40;99.90
16867;DHT22;8550;52.596;13.320;2023-11-21T07:57:32;5.40;99.90
16867;DHT22;8550;52.596;13.320;2023-11-21T08:02:34;5.40;99.90
16867;DHT22;8550;52.596;13.320;2023-11-21T08:07:36;5.40;99.90
16867;DHT22;8550;52.596;13.320;2023-11-21T08:12:40;5.30;99.90
16867;DHT22;8550;52.596;13.320;2023-11-21T08:17:43;5.30;99.90
16867;DHT22;8550;52.596;13.320;2023-11-21T08:22:45;5.30;99.90
16867;DHT22;8550;52.596;13.320;2023-11-21T08:27:49;5.40;99.90
16867;DHT22;8550;52.596;13.320;2023-11-21T08:32:51;5.30;99.90
16867;DHT22;8550;52.596;13.320;2023-11-21T08:37:54;5.40;99.90
16867;DHT22;8550;52.596;13.320;2023-11-21T08:42:57;5.40;99.90
16867;DHT22;8550;52.596;13.320;2023-11-21T08:48:00;5.40;99.90
16867;DHT22;8550;52.596;13.320;2023-11-21T08:53:02;5.50;99.90
16867;DHT22;8550;52.596;13.320;2023-11-21T08:58:05;5.40;99.90
16867;DHT22;8550;52.596;13.320;2023-11-21T09:03:07;5.30;99.90
16867;DHT22;8550;52.596;13.320;2023-11-21T09:08:09;5.30;99.90
16867;DHT22;8550;52.596;13.320;2023-11-21T09:13:12;5.30;99.90
16867;DHT22;8550;52.596;13.320;2023-11-21T09:18:17;5.40;99.90
16867;DHT22;8550;52.596;13.320;2023-11-21T09:23:19;5.50;99.90
16867;DHT22;8550;52.596;13.320;2023-11-21T09:28:22;5.50;99.90
16867;DHT22;8550;52.596;13.320;2023-11-21T09:33:24;5.70;99.90
16867;DHT22;8550;52.596;13.320;2023-11-21T09:38:26;5.70;99.90
16867;DHT22;8550;52.596;13.320;2023-11-21T09:43:30;5.80;99.90
16867;DHT22;8550;52.596;13.320;2023-11-21T09:48:36;5.60;99.90
16867;DHT22;8550;52.596;13.320;2023-11-21T09:53:42;5.50;99.90
16867;DHT22;8550;52.596;13.320;2023-11-21T09:58:51;5.40;99.90
16867;DHT22;8550;52.596;13.320;2023-11-21T10:03:53;5.40;99.90
16867;DHT22;8550;52.596;13.320;2023-11-21T10:08:55;5.50;99.90
16867;DHT22;8550;52.596;13.320;2023-11-21T10:14:00;5.40;99.90
16867;DHT22;8550;52.596;13.320;2023-11-21T10:19:03;5.40;99.90
16867;DHT22;8550;52.596;13.320;2023-11-21T10:24:07;5.30;99.90
16867;DHT22;8550;52.596;13.320;2023-11-21T10:29:14;5.30;99.90
16867;DHT22;8550;52.596;13.320;2023-11-21T10:34:18;5.30;99.90
16867;DHT22;8550;52.596;13.320;2023-11-21T10:39:20;5.30;99.90
16867;DHT22;8550;52.596;13.320;2023-11-21T10:44:25;5.30;99.90
16867;DHT22;8550;52.596;13.320;2023-11-21T10:49:27;5.20;99.90
16867;DHT22;8550;52.596;13.320;2023-11-21T10:54:30;5.40;99.90
16867;DHT22;8550;52.596;13.320;2023-11-21T10:59:33;5.30;99.90
16867;DHT22;8550;52.596;13.320;2023-11-21T11:04:35;5.20;99.90
16867;DHT22;8550;52.596;13.320;2023-11-21T11:09:38;5.00;99.90
16867;DHT22;8550;52.596;13.320;2023-11-21T11:14:42;4.90;99.90
16867;DHT22;8550;52.596;13.320;2023-11-21T11:19:45;4.90;99.90
16867;DHT22;8550;52.596;13.320;2023-11-21T11:25:03;4.80;99.90
16867;DHT22;8550;52.596;13.320;2023-11-21T11:30:23;4.70;99.90
16867;DHT22;8550;52.596;13.320;2023-11-21T11:35:34;4.80;99.90
16867;DHT22;8550;52.596;13.320;2023-11-21T11:40:40;4.90;99.90
16867;DHT22;8550;52.596;13.320;2023-11-21T11:45:43;4.90;99.90
16867;DHT22;8550;52.596;13.320;2023-11-21T11:51:02;5.00;99.90
16867;DHT22;8550;52.596;13.320;2023-11-21T11:56:24;5.00;99.90
16867;DHT22;8550;52.596;13.320;2023-11-21T12:01:28;5.10;99.90
16867;DHT22;8550;52.596;13.320;2023-11-21T12:06:33;5.00;99.90
16867;DHT22;8550;52.596;13.320;2023-11-21T12:11:37;4.80;99.90
16867;DHT22;8550;52.596;13.320;2023-11-21T12:16:40;4.70;99.90
16867;DHT22;8550;52.596;13.320;2023-11-21T12:21:43;4.70;99.90
16867;DHT22;8550;52.596;13.320;2023-11-21T12:26:45;4.80;99.90
16867;DHT22;8550;52.596;13.320;2023-11-21T12:31:50;5.00;99.90
16867;DHT22;8550;52.596;13.320;2023-11-21T12:36:52;4.90;99.90
16867;DHT22;8550;52.596;13.320;2023-11-21T12:41:55;4.90;99.90
16867;DHT22;8550;52.596;13.320;2023-11-21T12:46:59;4.90;99.90
16867;DHT22;8550;52.596;13.320;2023-11-21T12:52:02;5.00;99.90
16867;DHT22;8550;52.596;13.320;2023-11-21T12:57:04;4.80;99.90
16867;DHT22;8550;52.596;13.320;2023-11-21T13:02:12;4.80;99.90
16867;DHT22;8550;52.596;13.320;2023-11-21T13:07:16;4.60;99.90
16867;DHT22;8550;52.596;13.320;2023-11-21T13:12:23;4.50;99.90
16867;DHT22;8550;52.596;13.320;2023-11-21T13:17:29;4.40;99.90
16867;DHT22;8550;52.596;13.320;2023-11-21T13:22:32;4.40;99.90
16867;DHT22;8550;52.596;13.320;2023-11-21T13:27:34;4.30;99.90
16867;DHT22;8550;52.596;13.320;2023-11-21T13:32:38;4.20;99.90
16867;DHT22;8550;52.596;13.320;2023-11-21T13:37:41;4.20;99.90
16867;DHT22;8550;52.596;13.320;2023-11-21T13:42:43;4.30;99.90
16867;DHT22;8550;52.596;13.320;2023-11-21T13:47:46;4.20;99.90
16867;DHT22;8550;52.596;13.320;2023-11-21T13:52:48;4.30;99.90
16867;DHT22;8550;52.596;13.320;2023-11-21T13:57:51;4.20;99.90
16867;DHT22;8550;52.596;13.320;2023-11-21T14:02:55;4.00;99.90
16867;DHT22;8550;52.596;13.320;2023-11-21T14:08:01;4.00;99.90
16867;DHT22;8550;52.596;13.320;2023-11-21T14:13:05;4.00;99.90
16867;DHT22;8550;52.596;13.320;2023-11-21T14:18:08;3.90;99.90
16867;DHT22;8550;52.596;13.320;2023-11-21T14:23:11;3.70;99.90
16867;DHT22;8550;52.596;13.320;2023-11-21T14:28:13;3.60;99.90
16867;DHT22;8550;52.596;13.320;2023-11-21T14:33:17;3.60;99.90
16867;DHT22;8550;52.596;13.320;2023-11-21T14:38:19;3.50;99.90
16867;DHT22;8550;52.596;13.320;2023-11-21T14:43:21;3.50;99.90
16867;DHT22;8550;52.596;13.320;2023-11-21T14:48:25;3.50;99.90
16867;DHT22;8550;52.596;13.320;2023-11-21T14:53:42;3.50;99.90
16867;DHT22;8550;52.596;13.320;2023-11-21T14:58:54;3.50;99.90
16867;DHT22;8550;52.596;13.320;2023-11-21T15:03:58;3.50;99.90
16867;DHT22;8550;52.596;13.320;2023-11-21T15:09:00;3.50;99.90
16867;DHT22;8550;52.596;13.320;2023-11-21T15:14:25;3.40;99.90
16867;DHT22;8550;52.596;13.320;2023-11-21T15:19:33;3.30;99.90
16867;DHT22;8550;52.596;13.320;2023-11-21T15:24:36;3.30;99.90
16867;DHT22;8550;52.596;13.320;2023-11-21T15:29:38;3.40;99.90
16867;DHT22;8550;52.596;13.320;2023-11-21T15:34:41;3.40;99.90
16867;DHT22;8550;52.596;13.320;2023-11-21T15:39:43;3.40;99.90
16867;DHT22;8550;52.596;13.320;2023-11-21T15:44:46;3.40;99.90
16867;DHT22;8550;52.596;13.320;2023-11-21T15:49:50;3.30;99.90
16867;DHT22;8550;52.596;13.320;2023-11-21T15:54:51;3.30;99.90
16867;DHT22;8550;52.596;13.320;2023-11-21T15:59:55;3.30;99.90
16867;DHT22;8550;52.596;13.320;2023-11-21T16:04:59;3.40;99.90
16867;DHT22;8550;52.596;13.320;2023-11-21T16:10:02;3.50;99.90
16867;DHT22;8550;52.596;13.320;2023-11-21T16:15:06;3.30;99.90
16867;DHT22;8550;52.596;13.320;2023-11-21T16:20:11;3.40;99.90
16867;DHT22;8550;52.596;13.320;2023-11-21T16:25:14;3.40;99.90
16867;DHT22;8550;52.596;13.320;2023-11-21T16:30:16;3.40;99.90
16867;DHT22;8550;52.596;13.320;2023-11-21T16:35:25;3.20;99.90
16867;DHT22;8550;52.596;13.320;2023-11-21T16:40:27;3.20;99.90
16867;DHT22;8550;52.596;13.320;2023-11-21T16:45:29;3.10;99.90
16867;DHT22;8550;52.596;13.320;2023-11-21T16:50:32;3.10;99.90
16867;DHT22;8550;52.596;13.320;2023-11-21T16:55:34;3.20;99.90
16867;DHT22;8550;52.596;13.320;2023-11-21T17:00:36;3.00;99.90
16867;DHT22;8550;52.596;13.320;2023-11-21T17:05:39;3.10;99.90
16867;DHT22;8550;52.596;13.320;2023-11-21T17:10:41;3.00;99.90
16867;DHT22;8550;52.596;13.320;2023-11-21T17:15:43;3.00;99.90
16867;DHT22;8550;52.596;13.320;2023-11-21T17:20:46;3.00;99.90
16867;DHT22;8550;52.596;13.320;2023-11-21T17:25:49;3.00;99.90
16867;DHT22;8550;52.596;13.320;2023-11-21T17:30:51;2.90;99.90
16867;DHT22;8550;52.596;13.320;2023-11-21T17:35:55;2.90;99.90
16867;DHT22;8550;52.596;13.320;2023-11-21T17:40:58;2.80;99.90
16867;DHT22;8550;52.596;13.320;2023-11-21T17:46:00;2.70;99.90
16867;DHT22;8550;52.596;13.320;2023-11-21T17:51:03;2.80;99.90
16867;DHT22;8550;52.596;13.320;2023-11-21T17:56:05;2.80;99.90
16867;DHT22;8550;52.596;13.320;2023-11-21T18:01:07;2.80;99.90
16867;DHT22;8550;52.596;13.320;2023-11-21T18:06:10;2.80;99.90
16867;DHT22;8550;52.596;13.320;2023-11-21T18:11:13;2.80;99.90
16867;DHT22;8550;52.596;13.320;2023-11-21T18:16:15;2.80;99.90
16867;DHT22;8550;52.596;13.320;2023-11-21T18:21:18;2.70;99.90
16867;DHT22;8550;52.596;13.320;2023-11-21T18:26:20;2.60;99.90
16867;DHT22;8550;52.596;13.320;2023-11-21T18:31:22;2.60;99.90
16867;DHT22;8550;52.596;13.320;2023-11-21T18:36:25;2.60;99.90
16867;DHT22;8550;52.596;13.320;2023-11-21T18:41:28;2.50;99.90
16867;DHT22;8550;52.596;13.320;2023-11-21T18:46:36;2.50;99.90
16867;DHT22;8550;52.596;13.320;2023-11-21T18:51:39;2.50;99.90
16867;DHT22;8550;52.596;13.320;2023-11-21T18:56:41;2.50;99.90
16867;DHT22;8550;52.596;13.320;2023-11-21T19:01:43;2.40;99.90
16867;DHT22;8550;52.596;13.320;2023-11-21T19:06:48;2.40;99.90
16867;DHT22;8550;52.596;13.320;2023-11-21T19:11:50;2.40;99.90
16867;DHT22;8550;52.596;13.320;2023-11-21T19:16:52;2.30;99.90
16867;DHT22;8550;52.596;13.320;2023-11-21T19:21:55;2.30;99.90
16867;DHT22;8550;52.596;13.320;2023-11-21T19:26:57;2.20;99.90
16867;DHT22;8550;52.596;13.320;2023-11-21T19:31:59;2.20;99.90
16867;DHT22;8550;52.596;13.320;2023-11-21T19:37:02;2.20;99.90
16867;DHT22;8550;52.596;13.320;2023-11-21T19:42:05;2.20;99.90
16867;DHT22;8550;52.596;13.320;2023-11-21T19:47:07;2.20;99.90
16867;DHT22;8550;52.596;13.320;2023-11-21T19:52:10;2.10;99.90
16867;DHT22;8550;52.596;13.320;2023-11-21T19:57:12;2.10;99.90
16867;DHT22;8550;52.596;13.320;2023-11-21T20:02:17;2.00;99.90
16867;DHT22;8550;52.596;13.320;2023-11-21T20:07:20;2.00;99.90
16867;DHT22;8550;52.596;13.320;2023-11-21T20:12:24;1.90;99.90
16867;DHT22;8550;52.596;13.320;2023-11-21T20:17:26;1.90;99.90
16867;DHT22;8550;52.596;13.320;2023-11-21T20:22:36;1.90;99.90
16867;DHT22;8550;52.596;13.320;2023-11-21T20:27:44;1.90;99.90
16867;DHT22;8550;52.596;13.320;2023-11-21T20:32:47;1.80;99.90
16867;DHT22;8550;52.596;13.320;2023-11-21T20:37:52;1.80;99.90
16867;DHT22;8550;52.596;13.320;2023-11-21T20:42:54;1.70;99.90
16867;DHT22;8550;52.596;13.320;2023-11-21T20:48:02;1.80;99.90
16867;DHT22;8550;52.596;13.320;2023-11-21T20:53:06;1.80;99.90
16867;DHT22;8550;52.596;13.320;2023-11-21T20:58:11;1.90;99.90
16867;DHT22;8550;52.596;13.320;2023-11-21T21:03:13;1.80;99.90
16867;DHT22;8550;52.596;13.320;2023-11-21T21:08:16;1.80;99.90
16867;DHT22;8550;52.596;13.320;2023-11-21T21:13:18;1.60;99.90
16867;DHT22;8550;52.596;13.320;2023-11-21T21:18:20;1.60;99.90
16867;DHT22;8550;52.596;13.320;2023-11-21T21:23:27;1.50;99.90
16867;DHT22;8550;52.596;13.320;2023-11-21T21:28:29;1.40;99.90
16867;DHT22;8550;52.596;13.320;2023-11-21T21:33:31;1.30;99.90
16867;DHT22;8550;52.596;13.320;2023-11-21T21:38:35;1.30;99.90
16867;DHT22;8550;52.596;13.320;2023-11-21T21:43:39;1.10;99.90
16867;DHT22;8550;52.596;13.320;2023-11-21T21:48:42;1.10;99.90
16867;DHT22;8550;52.596;13.320;2023-11-21T21:53:46;1.00;99.90
16867;DHT22;8550;52.596;13.320;2023-11-21T21:58:48;1.00;99.90
16867;DHT22;8550;52.596;13.320;2023-11-21T22:03:50;0.90;99.90
16867;DHT22;8550;52.596;13.320;2023-11-21T22:08:54;0.80;99.90
16867;DHT22;8550;52.596;13.320;2023-11-21T22:13:56;0.80;99.90
16867;DHT22;8550;52.596;13.320;2023-11-21T22:18:58;0.80;99.90
16867;DHT22;8550;52.596;13.320;2023-11-21T22:24:02;0.80;99.90
16867;DHT22;8550;52.596;13.320;2023-11-21T22:29:05;0.70;99.90
16867;DHT22;8550;52.596;13.320;2023-11-21T22:34:07;0.70;99.90
16867;DHT22;8550;52.596;13.320;2023-11-21T22:39:11;0.50;99.90
16867;DHT22;8550;52.596;13.320;2023-11-21T22:44:14;0.50;99.90
16867;DHT22;8550;52.596;13.320;2023-11-21T22:49:16;0.50;99.90
16867;DHT22;8550;52.596;13.320;2023-11-21T22:54:21;0.40;99.90
16867;DHT22;8550;52.596;13.320;2023-11-21T22:59:23;0.40;99.90
16867;DHT22;8550;52.596;13.320;2023-11-21T23:04:25;0.50;99.90
16867;DHT22;8550;52.596;13.320;2023-11-21T23:09:29;0.70;99.90
16867;DHT22;8550;52.596;13.320;2023-11-21T23:14:32;0.70;99.90
16867;DHT22;8550;52.596;13.320;2023-11-21T23:19:35;0.70;99.90
16867;DHT22;8550;52.596;13.320;2023-11-21T23:24:38;0.70;99.90
16867;DHT22;8550;52.596;13.320;2023-11-21T23:29:42;0.40;99.90
16867;DHT22;8550;52.596;13.320;2023-11-21T23:34:50;0.40;99.90
16867;DHT22;8550;52.596;13.320;2023-11-21T23:39:59;0.20;99.90
16867;DHT22;8550;52.596;13.320;2023-11-21T23:45:07;0.20;99.90
16867;DHT22;8550;52.596;13.320;2023-11-21T23:50:09;0.20;99.90
16867;DHT22;8550;52.596;13.320;2023-11-21T23:55:13;0.20;99.90
